• Join FlightAware (Why Join?)
  • Login
  • US Flag 
06:04PM EDT


 

Airport Tracker/Info


-or-


 

Live Flight TrackerFlight Track Log ✈ TAM3741 ✈ 22-Apr-2013 ✈ SBBE / BEL - SBFZ / FOR

Flight Track Log - Related Links

Times and Time Zones

All times are in EDT time to prevent confusion due to time zone crossing. See the TAM3741 flight status page for this flight to view local times or setup timezone preferences in your user account.

Time Position Orientation Groundspeed Altitude Reporting Facility
EDT Latitude Longitude Course Direction KTS MPH feet Rate Location/Type
09:37AM -2.3294 -44.5761 104° East  Level Estimated
09:38AM -2.3519 -44.4832 104° East  Level Estimated
09:39AM -2.3744 -44.3903 104° East  Level Estimated
09:40AM -2.3969 -44.2974 104° East  Level Estimated
09:41AM -2.4194 -44.2044 104° East  Level Estimated
09:42AM -2.4419 -44.1115 104° East  Level Estimated
09:43AM -2.4644 -44.0186 104° East  Level Estimated
09:44AM -2.4869 -43.9257 104° East  Level Estimated
09:45AM -2.5093 -43.8327 104° East  Level Estimated
09:46AM -2.5318 -43.7398 104° East  Level Estimated
09:47AM -2.5542 -43.6468 104° East  Level Estimated
09:48AM -2.5767 -43.5539 104° East  Level Estimated
09:49AM -2.5991 -43.4609 104° East  Level Estimated
09:50AM -2.6215 -43.3680 104° East  Level Estimated
09:51AM -2.6440 -43.2750 104° East  Level Estimated
09:52AM -2.6664 -43.1821 104° East  Level Estimated
09:53AM -2.6888 -43.0891 104° East  Level Estimated
09:54AM -2.7112 -42.9961 104° East  Level Estimated
09:55AM -2.7336 -42.9032 104° East  Level Estimated
09:56AM -2.7560 -42.8102 104° East  Level Estimated
09:57AM -2.7784 -42.7172 104° East  Level Estimated
09:58AM -2.8007 -42.6242 104° East  Level Estimated
09:59AM -2.8231 -42.5312 104° East  Level Estimated
10:00AM -2.8455 -42.4383 104° East  Level Estimated
10:01AM -2.8678 -42.3453 104° East  Level Estimated
10:02AM -2.8902 -42.2523 104° East  Level Estimated
10:03AM -2.9125 -42.1593 104° East  Level Estimated
10:04AM -2.9348 -42.0663 104° East  Level Estimated
10:05AM -2.9571 -41.9733 104° East  Level Estimated
10:06AM -2.9794 -41.8802 104° East  Level Estimated
10:07AM -3.0018 -41.7872 104° East  Level Estimated
10:08AM -3.0241 -41.6942 104° East  Level Estimated
10:09AM -3.0464 -41.6012 103° East  Level Estimated
10:10AM -3.0686 -41.5082 103° East  Level Estimated
10:11AM -3.0909 -41.4151 103° East  Level Estimated
10:12AM -3.1132 -41.3221 103° East  Level Estimated
10:13AM -3.1354 -41.2291 103° East  Level Estimated
10:14AM -3.1577 -41.1360 103° East  Level Estimated
10:15AM -3.1799 -41.0430 103° East  Level Estimated
10:16AM -3.2022 -40.9499 103° East  Level Estimated
10:17AM -3.2244 -40.8569 103° East  Level Estimated
10:18AM -3.2466 -40.7638 103° East  Level Estimated
10:19AM -3.2688 -40.6707 103° East  Level Estimated
10:20AM -3.2910 -40.5777 103° East  Level Estimated
10:21AM -3.3132 -40.4846 103° East  Level Estimated
10:22AM -3.3354 -40.3915 103° East  Level Estimated
10:23AM -3.3575 -40.2985 103° East  Level Estimated
10:24AM -3.3797 -40.2054 103° East  Level Estimated
10:25AM -3.4019 -40.1123 103° East  Level Estimated
10:26AM -3.4240 -40.0192 103° East  Level Estimated
10:27AM -3.4462 -39.9261 103° East  Level Estimated
10:28AM -3.4683 -39.8330 103° East  Level Estimated
10:29AM -3.4904 -39.7399 103° East  Level Estimated
10:30AM -3.5125 -39.6468 103° East  Level Estimated
10:31AM -3.5346 -39.5537 103° East  Level Estimated
10:32AM -3.5567 -39.4606 103° East  Level Estimated
10:33AM -3.5788 -39.3674 103° East  Level Estimated
10:34AM -3.6009 -39.2743 103° East  Level Estimated
10:35AM -3.6229 -39.1812 103° East  Level Estimated
10:36AM -3.6450 -39.0880 103° East  Level Estimated
10:37AM -3.6670 -38.9949 103° East  Level Estimated
10:38AM -3.6890 -38.9018 103° East  Level Estimated
10:39AM -3.7111 -38.8086 103° East  Level Estimated
10:40AM -3.7331 -38.7155 103° East  Level Estimated
10:41AM -3.7551 -38.6223 103° East  Level Estimated
10:42AM -3.7763 -38.5326 103° East  Level Estimated
10:43AM -3.7763 -38.5326 127° Southeast  Level Estimated
10:44AM -3.7763 -38.5326 127° Southeast  Level Estimated
10:45AM -3.7763 -38.5326 127° Southeast  Level Estimated
10:46AM -3.7763 -38.5326 127° Southeast  Level Estimated
10:47AM -3.7763 -38.5326 127° Southeast  Level Estimated
10:48AM -3.7763 -38.5326 127° Southeast  Level Estimated
10:49AM -3.7763 -38.5326 127° Southeast  Level Estimated
10:50AM -3.7763 -38.5326 127° Southeast  Level Estimated
10:51AM -3.7763 -38.5326 127° Southeast  Level Estimated
10:52AM -3.7763 -38.5326 127° Southeast  Level Estimated
10:53AM -3.7763 -38.5326 127° Southeast  Level Estimated
10:54AM -3.7763 -38.5326 127° Southeast  Level Estimated
10:55AM -3.7763 -38.5326 127° Southeast  Level Estimated
10:56AM -3.7763 -38.5326 127° Southeast  Level Estimated
10:57AM -3.7763 -38.5326 127° Southeast  Level Estimated
10:58AM -3.7763 -38.5326 127° Southeast  Level Estimated